Time;durP1;ratioP1;P1;durP2;ratioP2;P2;SDS_P1;SDS_P2;PMS_P1;PMS_P2;Temp;Humidity;BMP_temperature;BMP_pressure;BME280_temperature;BME280_humidity;BME280_pressure;Samples;Min_cycle;Max_cycle;Signal;HPM_P1;HPM_P2
2022/08/23 00:02:00;;;;;;;13.00;8.32;;;19.00;99.90;;;;;;5073635;28;20127;-60
2022/08/23 00:04:32;;;;;;;11.63;7.25;;;19.00;99.90;;;;;;5073889;28;20044;-60
2022/08/23 00:06:59;;;;;;;10.70;6.70;;;18.90;99.90;;;;;;5070679;28;20068;-60
2022/08/23 00:09:26;;;;;;;9.82;6.35;;;18.90;99.90;;;;;;5073577;28;20048;-59
2022/08/23 00:12:03;;;;;;;10.68;6.32;;;18.80;99.90;;;;;;5073772;28;20108;-60
2022/08/23 00:14:32;;;;;;;11.23;6.85;;;18.80;99.90;;;;;;5073464;28;20052;-60
2022/08/23 00:16:58;;;;;;;13.38;7.03;;;18.80;99.90;;;;;;5069240;28;20071;-60
2022/08/23 00:19:25;;;;;;;8.52;6.30;;;18.80;99.90;;;;;;5073191;28;20033;-60
2022/08/23 00:21:53;;;;;;;10.80;6.82;;;18.80;99.90;;;;;;5073582;28;20365;-60
2022/08/23 00:24:20;;;;;;;11.55;6.93;;;18.80;99.90;;;;;;5069980;28;20105;-60
2022/08/23 00:27:00;;;;;;;13.48;7.70;;;18.80;99.90;;;;;;5062306;28;20079;-60
2022/08/23 00:29:56;;;;;;;13.55;8.07;;;18.80;99.90;;;;;;5072003;28;20044;-60
2022/08/23 00:32:26;;;;;;;12.85;8.00;;;18.70;99.90;;;;;;5068646;28;20052;-61
2022/08/23 00:34:52;;;;;;;13.73;8.40;;;18.60;99.90;;;;;;5073242;28;20349;-60
2022/08/23 00:37:19;;;;;;;12.20;8.07;;;18.60;99.90;;;;;;5061707;28;20047;-61
2022/08/23 00:39:45;;;;;;;11.95;7.60;;;18.60;99.90;;;;;;5072918;28;20107;-60
2022/08/23 00:48:02;;;;;;;12.15;6.85;;;18.50;99.90;;;;;;5065396;28;20040;-60
2022/08/23 00:50:42;;;;;;;12.70;6.97;;;18.50;99.90;;;;;;5067846;28;20356;-60
2022/08/23 00:53:17;;;;;;;13.73;7.72;;;18.50;99.90;;;;;;5065305;28;20050;-61
2022/08/23 00:55:45;;;;;;;9.90;6.53;;;18.50;99.90;;;;;;5066095;28;20435;-60
2022/08/23 00:58:15;;;;;;;9.63;7.15;;;18.40;99.90;;;;;;5064811;28;20055;-60
2022/08/23 01:00:41;;;;;;;11.90;8.02;;;18.30;99.90;;;;;;5067894;28;20124;-60
2022/08/23 01:03:08;;;;;;;13.07;7.38;;;18.30;99.90;;;;;;5052723;28;20056;-60
2022/08/23 01:05:47;;;;;;;11.13;6.60;;;18.30;99.90;;;;;;5064171;28;20112;-60
2022/08/23 01:08:13;;;;;;;12.75;6.93;;;18.30;99.90;;;;;;5062271;28;20449;-60
2022/08/23 01:10:46;;;;;;;12.23;7.32;;;18.30;99.90;;;;;;5072279;28;20048;-61
2022/08/23 01:13:28;;;;;;;11.73;8.18;;;18.20;99.90;;;;;;5072306;28;20441;-61
2022/08/23 01:16:06;;;;;;;13.15;8.77;;;18.20;99.90;;;;;;5068571;28;20085;-60
2022/08/23 01:18:32;;;;;;;11.80;9.13;;;18.10;99.90;;;;;;5072090;28;20454;-60
2022/08/23 01:21:12;;;;;;;14.85;9.57;;;18.10;99.90;;;;;;5072196;28;20036;-60
2022/08/23 01:23:40;;;;;;;15.00;10.57;;;18.10;99.90;;;;;;5071838;28;20521;-60
2022/08/23 01:26:07;;;;;;;14.50;9.98;;;18.10;99.90;;;;;;5061456;28;20545;-60
2022/08/23 01:28:34;;;;;;;14.27;9.85;;;18.00;99.90;;;;;;5044266;28;20032;-60
2022/08/23 01:31:01;;;;;;;15.73;10.13;;;17.90;99.90;;;;;;5072119;28;20119;-61
2022/08/23 01:33:27;;;;;;;12.73;9.68;;;17.90;99.90;;;;;;5072083;28;20040;-61
2022/08/23 01:35:56;;;;;;;12.93;9.65;;;17.90;99.90;;;;;;5064504;28;20108;-60
2022/08/23 01:38:23;;;;;;;12.77;8.82;;;17.80;99.90;;;;;;5068763;28;20041;-60
2022/08/23 01:40:50;;;;;;;13.68;9.10;;;17.80;99.90;;;;;;5072277;28;20072;-60
2022/08/23 01:43:18;;;;;;;14.90;9.10;;;17.80;99.90;;;;;;5071724;28;20050;-60
2022/08/23 01:45:44;;;;;;;13.65;8.98;;;17.80;99.90;;;;;;5062664;28;20541;-59
2022/08/23 01:48:11;;;;;;;14.95;10.20;;;17.70;99.90;;;;;;5065639;28;20347;-60
2022/08/23 01:50:37;;;;;;;13.88;11.02;;;17.80;99.90;;;;;;5071587;28;20072;-60
2022/08/23 01:53:06;;;;;;;15.75;13.38;;;17.70;99.90;;;;;;5059675;28;20062;-59
2022/08/23 01:55:33;;;;;;;17.63;13.63;;;17.70;99.90;;;;;;5065469;28;20037;-60
2022/08/23 01:58:01;;;;;;;15.27;13.18;;;17.60;99.90;;;;;;5062207;28;20047;-59
2022/08/23 02:00:38;;;;;;;15.75;12.05;;;17.60;99.90;;;;;;5071224;28;20040;-59
2022/08/23 02:03:05;;;;;;;15.82;11.30;;;17.60;99.90;;;;;;5071730;28;20115;-59
2022/08/23 02:05:31;;;;;;;16.17;12.18;;;17.60;99.90;;;;;;5069442;28;20059;-60
2022/08/23 02:08:59;;;;;;;13.68;11.48;;;17.60;99.90;;;;;;5071569;28;20090;-60
2022/08/23 02:10:42;;;;;;;15.25;11.70;;;17.60;99.90;;;;;;5070916;28;20124;-60
2022/08/23 02:13:08;;;;;;;16.20;12.73;;;17.50;99.90;;;;;;5071321;28;20119;-60
2022/08/23 02:15:34;;;;;;;16.15;13.82;;;17.60;99.90;;;;;;5068021;28;20033;-60
2022/08/23 02:17:59;;;;;;;17.23;15.32;;;17.50;99.90;;;;;;5071488;28;20071;-60
2022/08/23 02:20:25;;;;;;;20.30;15.02;;;17.50;99.90;;;;;;5071404;28;20044;-60
2022/08/23 02:22:50;;;;;;;20.42;15.02;;;17.40;99.90;;;;;;5071399;28;20037;-60
2022/08/23 02:25:16;;;;;;;17.75;14.25;;;17.50;99.90;;;;;;5069083;28;20071;-60
2022/08/23 02:27:42;;;;;;;16.63;13.27;;;17.40;99.90;;;;;;5064566;28;20052;-60
2022/08/23 02:30:08;;;;;;;15.75;12.50;;;17.50;99.90;;;;;;5070876;28;20389;-60
2022/08/23 02:32:33;;;;;;;16.88;12.32;;;17.40;99.90;;;;;;5071424;28;20032;-61
2022/08/23 02:34:59;;;;;;;14.50;11.68;;;17.40;99.90;;;;;;5070796;28;20083;-60
2022/08/23 02:37:25;;;;;;;15.65;12.20;;;17.30;99.90;;;;;;5062049;28;20064;-60
2022/08/23 02:39:50;;;;;;;18.38;11.57;;;17.30;99.90;;;;;;5075116;28;20548;-60
2022/08/23 02:42:16;;;;;;;12.20;10.20;;;17.30;99.90;;;;;;5075144;28;20181;-60
2022/08/23 02:44:42;;;;;;;12.45;10.55;;;17.20;99.90;;;;;;5061897;28;20048;-60
2022/08/23 02:47:10;;;;;;;12.52;10.65;;;17.10;99.90;;;;;;5061829;28;20048;-60
2022/08/23 02:49:37;;;;;;;12.30;9.82;;;17.20;99.90;;;;;;5074892;28;20454;-62
2022/08/23 02:52:05;;;;;;;14.52;10.40;;;17.20;99.90;;;;;;5074691;28;20112;-60
2022/08/23 02:54:31;;;;;;;13.75;9.57;;;17.10;99.90;;;;;;5074800;28;20028;-60
2022/08/23 02:56:57;;;;;;;13.88;10.00;;;17.10;99.90;;;;;;5060174;28;20044;-60
2022/08/23 02:59:22;;;;;;;12.45;10.20;;;17.10;99.90;;;;;;5073927;28;20488;-60
2022/08/23 03:01:48;;;;;;;12.20;10.15;;;17.20;99.90;;;;;;5075035;28;20048;-59
2022/08/23 03:04:14;;;;;;;11.32;9.77;;;17.20;99.90;;;;;;5074798;28;20037;-60
2022/08/23 03:06:39;;;;;;;16.50;10.85;;;17.10;99.90;;;;;;5062037;28;20469;-60
2022/08/23 03:09:06;;;;;;;12.77;10.25;;;17.10;99.90;;;;;;5072509;28;20392;-60
2022/08/23 03:11:32;;;;;;;13.75;10.05;;;17.10;99.90;;;;;;5074744;28;20051;-60
2022/08/23 03:14:00;;;;;;;13.85;10.32;;;17.20;99.90;;;;;;5074394;28;20047;-60
2022/08/23 03:16:26;;;;;;;13.35;10.07;;;17.10;99.90;;;;;;5070748;28;20140;-59
2022/08/23 03:18:51;;;;;;;12.75;10.05;;;17.20;99.90;;;;;;5074664;28;20029;-60
2022/08/23 03:21:18;;;;;;;11.45;9.43;;;17.10;99.90;;;;;;5074674;28;20431;-59
2022/08/23 03:23:44;;;;;;;13.18;10.20;;;17.10;99.90;;;;;;5074443;28;20124;-61
2022/08/23 03:26:12;;;;;;;12.38;10.32;;;17.20;99.90;;;;;;5065241;28;20053;-60
2022/08/23 03:28:40;;;;;;;11.70;10.15;;;17.10;99.90;;;;;;5074452;28;20082;-61
2022/08/23 03:31:07;;;;;;;11.35;9.90;;;17.10;99.90;;;;;;5074340;28;20118;-60
2022/08/23 03:33:33;;;;;;;11.00;9.60;;;17.20;99.90;;;;;;5074270;28;20028;-59
2022/08/23 03:36:18;;;;;;;13.23;10.27;;;17.20;99.90;;;;;;5064167;28;20051;-59
2022/08/23 03:38:44;;;;;;;14.90;10.43;;;17.20;99.90;;;;;;5073994;28;20105;-60
2022/08/23 03:41:10;;;;;;;14.27;10.52;;;17.30;99.90;;;;;;5073077;28;20044;-59
2022/08/23 03:43:36;;;;;;;12.48;8.98;;;17.20;99.90;;;;;;5073792;28;20358;-60
2022/08/23 03:46:03;;;;;;;11.00;9.63;;;17.30;99.90;;;;;;5066334;28;20071;-59
2022/08/23 03:48:29;;;;;;;15.18;10.15;;;17.30;99.90;;;;;;5069302;28;20131;-60
2022/08/23 03:50:54;;;;;;;13.18;9.85;;;17.40;99.90;;;;;;5073704;28;20120;-61
2022/08/23 03:53:22;;;;;;;13.27;10.35;;;17.40;99.90;;;;;;5074062;28;20048;-59
2022/08/23 03:55:49;;;;;;;12.63;10.10;;;17.40;99.90;;;;;;5068357;28;20029;-60
2022/08/23 03:58:15;;;;;;;13.00;9.85;;;17.40;99.90;;;;;;5066235;28;20068;-60
2022/08/23 04:00:41;;;;;;;13.90;10.20;;;17.40;99.90;;;;;;5068854;28;20079;-60
2022/08/23 04:03:06;;;;;;;14.43;10.02;;;17.50;99.90;;;;;;5063211;28;20118;-60
2022/08/23 04:05:32;;;;;;;13.52;9.85;;;17.50;99.90;;;;;;5070579;28;20060;-60
2022/08/23 04:08:00;;;;;;;12.05;9.93;;;17.50;99.90;;;;;;5062266;28;20043;-60
2022/08/23 04:10:25;;;;;;;14.68;10.02;;;17.50;99.90;;;;;;5073167;28;20453;-60
2022/08/23 04:12:53;;;;;;;14.70;10.32;;;17.50;99.90;;;;;;5073839;28;20089;-60
2022/08/23 04:15:19;;;;;;;12.80;10.75;;;17.60;99.90;;;;;;5072194;28;20036;-59
2022/08/23 04:17:45;;;;;;;13.23;10.80;;;17.50;99.90;;;;;;5072387;28;20447;-60
2022/08/23 04:20:10;;;;;;;13.23;10.95;;;17.50;99.90;;;;;;5073309;28;20036;-59
2022/08/23 04:22:36;;;;;;;14.77;10.93;;;17.50;99.90;;;;;;5073276;28;20103;-59
2022/08/23 04:25:03;;;;;;;12.98;10.15;;;17.50;99.90;;;;;;5072817;28;20056;-60
2022/08/23 04:27:28;;;;;;;13.95;10.38;;;17.50;99.90;;;;;;5065715;28;20064;-60
2022/08/23 04:29:54;;;;;;;12.60;10.30;;;17.50;99.90;;;;;;5069897;28;20145;-60
2022/08/23 04:32:20;;;;;;;12.13;10.30;;;17.50;99.90;;;;;;5062823;28;20029;-60
2022/08/23 04:34:48;;;;;;;14.60;10.57;;;17.50;99.90;;;;;;5040638;28;20394;-60
2022/08/23 04:37:14;;;;;;;16.00;11.25;;;17.40;99.90;;;;;;5063575;28;20365;-60
2022/08/23 04:42:24;;;;;;;13.85;11.63;;;17.40;99.90;;;;;;5049424;28;20044;-60
2022/08/23 04:44:50;;;;;;;12.02;10.68;;;17.40;99.90;;;;;;5072765;28;20047;-60
2022/08/23 04:47:16;;;;;;;13.25;11.45;;;17.40;99.90;;;;;;5055949;28;20079;-60
2022/08/23 04:49:42;;;;;;;14.25;11.05;;;17.40;99.90;;;;;;5065427;28;20040;-59
2022/08/23 04:52:08;;;;;;;13.80;11.23;;;17.40;99.90;;;;;;5071844;28;20045;-60
2022/08/23 04:54:34;;;;;;;12.40;10.98;;;17.40;99.90;;;;;;5062592;28;20492;-60
2022/08/23 04:56:59;;;;;;;12.38;10.98;;;17.40;99.90;;;;;;5055842;28;20362;-60
2022/08/23 04:59:25;;;;;;;14.18;12.23;;;17.50;99.90;;;;;;5072184;28;20032;-60
2022/08/23 05:01:50;;;;;;;15.43;11.52;;;17.60;99.90;;;;;;5058343;28;20497;-59
2022/08/23 05:04:16;;;;;;;12.90;11.27;;;17.70;99.90;;;;;;5072768;28;20036;-60
2022/08/23 05:06:44;;;;;;;12.40;11.10;;;17.70;99.90;;;;;;5059944;28;20037;-60
2022/08/23 05:09:09;;;;;;;14.57;11.85;;;17.80;99.90;;;;;;5070803;28;20036;-61
2022/08/23 05:11:35;;;;;;;14.15;12.30;;;17.90;99.90;;;;;;5072495;28;20037;-60
2022/08/23 05:14:01;;;;;;;15.63;12.55;;;17.90;99.90;;;;;;5072457;28;20043;-59
2022/08/23 05:16:26;;;;;;;16.33;12.70;;;18.00;99.90;;;;;;5070435;28;20148;-60
2022/08/23 05:18:52;;;;;;;16.35;13.23;;;18.00;99.90;;;;;;5072145;28;20037;-60
2022/08/23 05:21:20;;;;;;;17.35;13.02;;;18.00;99.90;;;;;;5072469;28;20059;-59
2022/08/23 05:23:46;;;;;;;13.68;12.07;;;18.20;99.90;;;;;;5059557;28;20060;-59
2022/08/23 05:26:12;;;;;;;17.13;13.02;;;18.30;99.90;;;;;;5062739;28;20049;-60
2022/08/23 05:28:42;;;;;;;14.65;12.80;;;18.30;99.90;;;;;;5072170;28;20108;-60
2022/08/23 05:31:15;;;;;;;17.17;12.23;;;18.40;99.90;;;;;;5072093;28;20064;-59
2022/08/23 05:33:42;;;;;;;15.10;13.48;;;18.40;99.90;;;;;;5072103;28;20119;-59
2022/08/23 05:36:10;;;;;;;14.75;12.32;;;18.40;99.90;;;;;;5058612;28;20478;-59
2022/08/23 05:38:37;;;;;;;18.40;13.35;;;18.40;99.90;;;;;;5070414;28;20029;-60
2022/08/23 05:41:03;;;;;;;13.80;12.35;;;18.40;99.90;;;;;;5071800;28;20051;-60
2022/08/23 05:43:30;;;;;;;16.15;13.52;;;18.40;99.90;;;;;;5071835;28;20032;-60
2022/08/23 05:46:14;;;;;;;14.13;12.63;;;18.40;99.90;;;;;;5064907;28;20043;-60
2022/08/23 05:48:42;;;;;;;17.05;13.25;;;18.40;99.90;;;;;;5069106;28;20032;-60
2022/08/23 05:51:18;;;;;;;15.40;12.57;;;18.50;99.90;;;;;;5071886;28;20093;-60
2022/08/23 05:53:45;;;;;;;15.15;13.07;;;18.50;99.90;;;;;;5070679;28;20044;-59
2022/08/23 05:56:13;;;;;;;15.18;12.52;;;18.70;99.90;;;;;;5060443;28;20102;-59
2022/08/23 05:58:39;;;;;;;15.90;13.10;;;18.90;99.90;;;;;;5067437;28;20040;-60
2022/08/23 06:01:05;;;;;;;13.85;12.30;;;19.00;99.90;;;;;;5071763;28;20048;-61
2022/08/23 06:03:31;;;;;;;16.50;12.20;;;19.00;99.90;;;;;;5071685;28;20071;-60
2022/08/23 06:05:58;;;;;;;15.48;13.68;;;19.00;99.90;;;;;;5064635;28;20470;-60
2022/08/23 06:08:24;;;;;;;18.85;12.98;;;18.90;99.90;;;;;;5063691;28;20275;-60
2022/08/23 06:10:59;;;;;;;13.77;12.20;;;18.80;99.90;;;;;;5071404;28;20047;-60
2022/08/23 06:13:25;;;;;;;14.23;12.77;;;18.80;99.90;;;;;;5071262;28;20446;-60
2022/08/23 06:15:50;;;;;;;15.07;12.68;;;18.80;99.90;;;;;;5066844;28;20043;-60
2022/08/23 06:18:16;;;;;;;13.88;12.35;;;18.80;99.90;;;;;;5060554;28;20469;-60
2022/08/23 06:20:42;;;;;;;17.05;12.02;;;18.80;99.90;;;;;;5071255;28;20076;-60
2022/08/23 06:23:07;;;;;;;15.15;11.45;;;18.80;99.90;;;;;;5071297;28;20316;-60
2022/08/23 06:25:39;;;;;;;16.25;11.90;;;18.80;99.90;;;;;;5068271;28;20052;-60
2022/08/23 06:28:05;;;;;;;14.43;12.35;;;18.90;99.90;;;;;;5067496;28;20048;-60
2022/08/23 06:30:30;;;;;;;16.45;12.38;;;19.10;99.90;;;;;;5070887;28;20359;-60
2022/08/23 06:32:56;;;;;;;15.73;12.07;;;19.70;99.90;;;;;;5070940;28;20171;-60
2022/08/23 06:35:22;;;;;;;14.40;11.93;;;20.80;99.90;;;;;;5070804;28;20036;-60
2022/08/23 06:37:48;;;;;;;13.52;11.35;;;21.50;99.90;;;;;;5050844;28;20386;-60
2022/08/23 06:40:14;;;;;;;13.32;11.32;;;22.10;99.90;;;;;;5069462;28;20789;-59
2022/08/23 06:42:39;;;;;;;12.98;10.90;;;22.30;99.90;;;;;;5071217;28;20046;-60
2022/08/23 06:45:05;;;;;;;15.07;10.77;;;22.30;99.90;;;;;;5069641;28;20037;-60
2022/08/23 06:47:31;;;;;;;15.00;10.70;;;22.10;99.90;;;;;;5061180;28;20361;-61
2022/08/23 06:49:57;;;;;;;11.27;10.10;;;21.90;99.90;;;;;;5069868;28;20048;-60
2022/08/23 06:52:24;;;;;;;13.77;10.60;;;21.70;99.90;;;;;;5071147;28;20036;-60
2022/08/23 06:54:51;;;;;;;12.15;9.80;;;21.60;99.90;;;;;;5070904;28;20040;-60
2022/08/23 06:57:16;;;;;;;10.98;9.40;;;21.70;99.90;;;;;;5056771;28;20048;-60
2022/08/23 06:59:42;;;;;;;13.13;9.82;;;21.80;99.90;;;;;;5071050;28;20037;-61
2022/08/23 07:02:13;;;;;;;12.15;10.07;;;22.00;99.90;;;;;;5070916;28;20047;-61
2022/08/23 07:04:40;;;;;;;11.48;9.77;;;22.00;99.90;;;;;;5070601;28;20043;-60
2022/08/23 07:07:07;;;;;;;11.18;10.02;;;22.00;99.90;;;;;;5057727;28;20094;-60
2022/08/23 07:09:33;;;;;;;11.15;9.73;;;21.80;99.90;;;;;;5070877;28;20052;-61
2022/08/23 07:12:00;;;;;;;13.02;9.98;;;21.80;99.90;;;;;;5070706;28;20113;-60
2022/08/23 07:14:27;;;;;;;16.23;10.13;;;21.80;99.90;;;;;;5070056;28;20430;-59
2022/08/23 07:16:58;;;;;;;13.13;10.68;;;21.70;99.90;;;;;;5058700;28;20032;-60
2022/08/23 07:19:27;;;;;;;14.52;10.65;;;21.70;99.90;;;;;;5055496;28;20103;-60
2022/08/23 07:21:53;;;;;;;12.10;10.50;;;21.60;99.90;;;;;;5070871;28;20048;-61
2022/08/23 07:24:21;;;;;;;12.93;10.48;;;21.60;99.90;;;;;;5072911;28;20499;-60
2022/08/23 07:26:48;;;;;;;12.50;10.93;;;21.60;99.90;;;;;;5067471;28;20053;-60
2022/08/23 07:29:15;;;;;;;12.23;10.48;;;21.60;99.90;;;;;;5074421;28;20059;-61
2022/08/23 07:31:44;;;;;;;13.18;10.75;;;21.80;99.90;;;;;;5074085;28;20051;-60
2022/08/23 07:34:10;;;;;;;11.10;10.00;;;21.90;99.90;;;;;;5074041;28;20032;-60
2022/08/23 07:36:37;;;;;;;11.75;10.05;;;22.10;99.90;;;;;;5059137;28;20240;-60
2022/08/23 07:39:05;;;;;;;13.43;10.18;;;22.20;99.90;;;;;;5074164;28;20050;-59
2022/08/23 07:41:32;;;;;;;15.18;10.25;;;22.40;99.90;;;;;;5073049;28;20111;-60
2022/08/23 07:44:02;;;;;;;15.57;10.27;;;22.50;99.90;;;;;;5061047;28;20048;-60
2022/08/23 07:46:29;;;;;;;12.95;10.05;;;22.60;99.90;;;;;;5064951;28;20056;-60
2022/08/23 07:48:57;;;;;;;14.10;10.45;;;22.80;99.90;;;;;;5073603;28;20048;-60
2022/08/23 07:51:24;;;;;;;13.18;10.52;;;22.90;99.90;;;;;;5073893;28;20481;-61
2022/08/23 07:53:50;;;;;;;14.63;8.98;;;22.90;99.90;;;;;;5073980;28;20033;-60
2022/08/23 07:56:18;;;;;;;11.57;9.52;;;22.90;99.90;;;;;;5066485;28;20036;-60
2022/08/23 07:58:44;;;;;;;14.73;9.80;;;23.00;99.90;;;;;;5070283;28;20044;-61
2022/08/23 08:01:15;;;;;;;10.18;9.18;;;23.00;99.90;;;;;;5073945;28;20043;-60
2022/08/23 08:03:42;;;;;;;11.93;9.10;;;23.10;99.90;;;;;;5073437;28;20066;-60
2022/08/23 08:06:17;;;;;;;13.25;9.65;;;23.20;99.90;;;;;;5067562;28;20048;-60
2022/08/23 08:08:44;;;;;;;13.73;10.18;;;23.30;99.90;;;;;;5068063;28;20470;-60
2022/08/23 08:11:11;;;;;;;12.77;10.13;;;23.30;99.90;;;;;;5072514;28;20054;-60
2022/08/23 08:13:38;;;;;;;11.65;9.45;;;23.40;99.90;;;;;;5073440;28;20036;-60
2022/08/23 08:16:06;;;;;;;11.63;9.05;;;23.40;99.90;;;;;;5067821;28;20374;-60
2022/08/23 08:18:31;;;;;;;12.38;9.57;;;23.50;99.90;;;;;;5065078;28;20031;-60
2022/08/23 08:20:57;;;;;;;12.93;9.52;;;23.70;99.90;;;;;;5073422;28;20123;-60
2022/08/23 08:23:23;;;;;;;12.05;9.68;;;23.80;99.90;;;;;;5063705;28;20052;-60
2022/08/23 08:25:57;;;;;;;12.93;9.88;;;23.80;99.90;;;;;;5065134;28;20064;-60
2022/08/23 08:28:23;;;;;;;14.30;9.65;;;23.80;99.90;;;;;;5071980;28;20144;-60
2022/08/23 08:30:48;;;;;;;14.70;9.80;;;23.80;99.90;;;;;;5073611;28;20409;-61
2022/08/23 08:33:14;;;;;;;15.05;10.10;;;23.90;99.90;;;;;;5072934;28;20037;-60
2022/08/23 08:35:39;;;;;;;12.60;10.00;;;24.00;99.90;;;;;;5070990;28;20059;-60
2022/08/23 08:38:05;;;;;;;11.77;9.68;;;24.20;99.90;;;;;;5067434;28;20074;-61
2022/08/23 08:40:38;;;;;;;12.40;10.45;;;24.30;99.90;;;;;;5066902;28;20076;-60
2022/08/23 08:43:27;;;;;;;;;;;24.40;99.90;;;;;;5067125;28;20045;-60
2022/08/23 08:46:06;;;;;;;13.13;9.55;;;24.50;99.90;;;;;;5068891;28;19935;-60
2022/08/23 08:48:40;;;;;;;11.98;9.63;;;24.50;99.90;;;;;;5068291;28;20493;-60
2022/08/23 08:51:30;;;;;;;10.98;8.13;;;24.70;99.90;;;;;;5073008;28;20190;-60
2022/08/23 08:53:57;;;;;;;13.30;8.98;;;24.80;99.90;;;;;;5072482;28;20449;-60
2022/08/23 08:56:27;;;;;;;10.52;8.77;;;25.00;99.90;;;;;;5065252;28;20041;-60
2022/08/23 08:58:58;;;;;;;9.57;8.60;;;25.00;99.90;;;;;;5069573;28;20044;-60
2022/08/23 09:01:25;;;;;;;11.50;8.75;;;25.00;99.90;;;;;;5073094;28;20047;-60
2022/08/23 09:03:52;;;;;;;12.60;9.60;;;25.10;99.90;;;;;;5072467;28;20488;-61
2022/08/23 09:06:29;;;;;;;10.35;8.75;;;25.20;99.90;;;;;;5065251;28;20044;-60
2022/08/23 09:09:26;;;;;;;14.02;10.70;;;25.40;99.90;;;;;;5068485;28;20520;-60
2022/08/23 09:12:11;;;;;;;15.70;9.93;;;25.50;99.90;;;;;;5072235;28;20105;-62
2022/08/23 09:15:12;;;;;;;11.65;8.98;;;25.60;99.90;;;;;;5072154;28;20040;-60
2022/08/23 09:17:51;;;;;;;10.95;9.85;;;25.80;99.90;;;;;;5058326;28;20094;-60
2022/08/23 09:20:21;;;;;;;14.60;9.82;;;25.90;99.90;;;;;;5072492;28;20059;-60
2022/08/23 09:22:57;;;;;;;12.68;10.93;;;26.00;99.90;;;;;;5071999;28;20233;-60
2022/08/23 09:25:24;;;;;;;11.10;9.05;;;25.80;99.90;;;;;;5070453;28;20070;-60
2022/08/23 09:27:49;;;;;;;10.50;8.85;;;25.90;99.90;;;;;;5067059;28;20036;-58
2022/08/23 09:30:17;;;;;;;11.38;9.13;;;26.20;99.90;;;;;;5072067;28;20126;-58
2022/08/23 09:32:45;;;;;;;13.02;9.82;;;26.40;99.90;;;;;;5071811;28;20627;-59
2022/08/23 09:35:23;;;;;;;16.38;9.55;;;26.40;99.90;;;;;;5057262;28;20072;-59
2022/08/23 09:37:48;;;;;;;11.07;8.95;;;26.50;99.90;;;;;;5065053;28;20123;-59
2022/08/23 09:40:25;;;;;;;9.80;8.40;;;26.60;99.90;;;;;;5071508;28;20132;-60
2022/08/23 09:43:18;;;;;;;10.43;9.32;;;26.80;99.90;;;;;;5071760;28;20465;-59
2022/08/23 09:45:47;;;;;;;12.65;9.25;;;26.80;99.90;;;;;;5067965;28;20112;-59
2022/08/23 09:48:30;;;;;;;10.80;8.73;;;26.70;99.90;;;;;;5065681;28;20048;-59
2022/08/23 09:51:16;;;;;;;11.77;8.25;;;26.80;99.90;;;;;;5071806;28;20067;-59
2022/08/23 09:53:49;;;;;;;11.80;7.18;;;26.90;99.90;;;;;;5071418;28;20125;-59
2022/08/23 09:56:22;;;;;;;10.95;7.50;;;27.00;99.90;;;;;;5065468;28;20044;-60
2022/08/23 09:58:51;;;;;;;;;;;27.20;99.90;;;;;;5069001;28;20056;-61
2022/08/23 10:01:24;;;;;;;11.48;6.72;;;27.40;99.90;;;;;;5071675;28;19917;-60
2022/08/23 10:04:09;;;;;;;;;;;27.50;99.90;;;;;;5071919;28;20043;-60
2022/08/23 10:06:36;;;;;;;11.30;7.38;;;27.60;99.90;;;;;;5062964;28;19917;-60
2022/08/23 10:09:04;;;;;;;11.95;7.00;;;27.70;99.40;;;;;;5068503;28;20039;-60
2022/08/23 10:11:46;;;;;;;8.85;6.30;;;27.70;99.30;;;;;;5071485;28;20082;-60
2022/08/23 10:14:14;;;;;;;9.43;6.70;;;27.70;99.30;;;;;;5067147;28;20037;-60
2022/08/23 10:16:59;;;;;;;9.57;6.90;;;27.80;99.20;;;;;;5051899;28;20469;-60
2022/08/23 10:19:39;;;;;;;10.75;6.82;;;27.90;98.70;;;;;;5070081;28;20028;-60
2022/08/23 10:22:22;;;;;;;11.43;6.95;;;27.90;98.90;;;;;;5071269;28;20327;-60
2022/08/23 10:24:51;;;;;;;10.30;6.30;;;28.00;99.10;;;;;;5066565;28;20089;-60
2022/08/23 10:30:15;;;;;;;9.18;5.68;;;28.30;98.30;;;;;;5071304;28;20048;-60
2022/08/23 10:33:01;;;;;;;9.80;5.63;;;28.30;98.10;;;;;;5071099;28;20127;-60
2022/08/23 10:35:46;;;;;;;9.40;5.53;;;28.40;97.50;;;;;;5070918;28;20339;-60
2022/08/23 10:38:30;;;;;;;10.48;4.65;;;28.50;97.60;;;;;;5061676;28;20106;-60
2022/08/23 10:41:07;;;;;;;8.30;6.13;;;28.50;97.50;;;;;;5071361;28;20041;-60
2022/08/23 10:44:05;;;;;;;10.75;5.70;;;28.60;97.20;;;;;;5070044;28;20045;-60
2022/08/23 10:46:38;;;;;;;9.95;5.30;;;28.70;97.20;;;;;;5050835;28;20515;-60
2022/08/23 10:49:06;;;;;;;10.45;5.20;;;28.50;97.40;;;;;;5043810;28;20071;-59
2022/08/23 10:51:38;;;;;;;7.45;4.50;;;28.60;97.30;;;;;;5071103;28;20084;-60
2022/08/23 10:54:11;;;;;;;5.32;3.50;;;28.70;97.00;;;;;;5069680;28;20043;-62
2022/08/23 10:56:37;;;;;;;8.35;3.60;;;28.90;97.00;;;;;;5062558;28;20136;-60
2022/08/23 10:59:13;;;;;;;5.40;2.33;;;29.00;95.70;;;;;;5070950;28;20032;-60
2022/08/23 11:02:08;;;;;;;6.47;3.60;;;29.10;94.50;;;;;;5073855;28;20458;-60
2022/08/23 11:04:54;;;;;;;10.15;3.70;;;29.10;95.00;;;;;;5074443;28;20071;-60
2022/08/23 11:07:25;;;;;;;8.30;3.10;;;29.10;94.70;;;;;;5063301;28;20350;-60
2022/08/23 11:10:12;;;;;;;8.07;3.38;;;29.20;94.70;;;;;;5074970;28;20119;-60
2022/08/23 11:12:57;;;;;;;5.82;3.17;;;29.30;94.10;;;;;;5073655;28;20279;-60
2022/08/23 11:15:30;;;;;;;6.82;2.70;;;29.40;94.10;;;;;;5073175;28;20059;-60
2022/08/23 11:18:01;;;;;;;9.93;3.47;;;29.50;93.70;;;;;;5061603;28;20487;-60
2022/08/23 11:20:48;;;;;;;6.88;3.40;;;29.60;93.30;;;;;;5074731;28;20059;-60
2022/08/23 11:23:34;;;;;;;8.85;3.65;;;29.60;93.90;;;;;;5074710;28;20478;-60
2022/08/23 11:26:00;;;;;;;6.35;3.42;;;29.60;93.70;;;;;;5070372;28;20061;-60
2022/08/23 11:28:26;;;;;;;8.00;3.40;;;29.60;94.00;;;;;;5071936;28;20434;-60
2022/08/23 11:31:18;;;;;;;5.93;3.20;;;29.50;93.90;;;;;;5073166;28;20067;-60
2022/08/23 11:33:52;;;;;;;7.47;3.25;;;29.60;94.00;;;;;;5070925;28;20040;-60
2022/08/23 11:36:24;;;;;;;10.68;3.28;;;29.70;94.40;;;;;;5059716;28;20494;-60
2022/08/23 11:38:49;;;;;;;6.93;3.28;;;29.70;93.90;;;;;;5040752;28;20184;-60
2022/08/23 11:41:18;;;;;;;9.50;3.97;;;29.60;93.80;;;;;;5065775;28;20120;-60
2022/08/23 11:43:48;;;;;;;7.32;3.35;;;29.70;93.90;;;;;;5059911;28;20044;-60
2022/08/23 11:46:33;;;;;;;5.78;3.20;;;29.70;94.10;;;;;;5067495;28;20154;-60
2022/08/23 11:49:27;;;;;;;5.55;3.00;;;29.80;94.40;;;;;;5046500;28;20028;-60
2022/08/23 11:52:02;;;;;;;;;;;30.00;93.60;;;;;;5074161;28;20040;-61
2022/08/23 11:55:01;;;;;;;6.50;2.95;;;30.00;94.40;;;;;;5072339;28;19916;-60
2022/08/23 11:58:00;;;;;;;5.88;3.17;;;30.20;93.40;;;;;;5064759;28;20040;-60
2022/08/23 12:00:50;;;;;;;6.35;3.00;;;30.10;92.70;;;;;;5073458;28;20478;-60
2022/08/23 12:03:32;;;;;;;8.45;3.22;;;30.20;93.40;;;;;;5074010;28;20048;-60
2022/08/23 12:06:36;;;;;;;6.25;2.78;;;30.20;92.60;;;;;;5070542;28;20108;-60
2022/08/23 12:09:10;;;;;;;4.13;2.25;;;30.30;93.10;;;;;;5070296;28;20029;-60
2022/08/23 12:11:54;;;;;;;5.32;2.78;;;30.30;92.60;;;;;;5073701;28;20042;-61
2022/08/23 12:14:41;;;;;;;5.65;2.42;;;30.20;92.80;;;;;;5072141;28;20054;-60
2022/08/23 12:17:24;;;;;;;7.93;2.88;;;30.20;92.50;;;;;;5061549;28;20045;-61
2022/08/23 12:20:05;;;;;;;6.22;2.40;;;30.20;92.20;;;;;;5050050;28;20037;-60
2022/08/23 12:23:10;;;;;;;4.85;2.53;;;30.10;92.10;;;;;;5070443;28;20045;-60
2022/08/23 12:25:36;;;;;;;5.07;2.65;;;30.20;91.40;;;;;;5066214;28;20049;-61
2022/08/23 12:28:31;;;;;;;6.15;3.05;;;30.30;91.90;;;;;;5055319;28;20187;-60
2022/08/23 12:31:16;;;;;;;6.65;2.97;;;30.40;91.80;;;;;;5072358;28;20084;-60
2022/08/23 12:33:58;;;;;;;5.97;3.20;;;30.60;91.70;;;;;;5073118;28;20115;-59
2022/08/23 12:36:46;;;;;;;7.70;3.05;;;30.70;91.40;;;;;;5067265;28;20060;-60
2022/08/23 12:39:33;;;;;;;7.60;3.28;;;30.70;91.60;;;;;;5062738;28;20111;-59
2022/08/23 12:42:08;;;;;;;6.32;3.45;;;30.70;91.70;;;;;;5072800;28;20044;-60
2022/08/23 12:44:34;;;;;;;7.75;3.35;;;30.70;91.60;;;;;;5071540;28;20044;-60
2022/08/23 12:47:12;;;;;;;6.63;3.10;;;30.80;91.70;;;;;;5065995;28;20032;-59
2022/08/23 12:49:38;;;;;;;6.85;3.63;;;30.80;91.50;;;;;;5072704;28;20123;-59
2022/08/23 12:52:11;;;;;;;5.68;3.55;;;30.80;91.30;;;;;;5072739;28;20063;-59
2022/08/23 12:54:40;;;;;;;8.55;2.95;;;30.70;91.10;;;;;;5071600;28;20036;-60
2022/08/23 12:57:14;;;;;;;6.70;3.30;;;30.70;91.30;;;;;;5064168;28;20035;-59
2022/08/23 13:00:16;;;;;;;6.65;2.95;;;30.60;91.40;;;;;;5072781;28;20075;-58
2022/08/23 13:02:47;;;;;;;6.32;2.80;;;30.40;91.40;;;;;;5072727;28;20055;-58
2022/08/23 13:05:25;;;;;;;8.45;3.38;;;30.20;91.80;;;;;;5071036;28;20070;-58
2022/08/23 13:07:50;;;;;;;7.85;3.70;;;30.20;91.80;;;;;;5062335;28;20032;-58